Nearby METAR Reports

 

KSJC - San Jose, California, USA
Distance from station: NE 14km
Updated: 03/12/2022 11:53
Overcast
Overcast
 Wind from SSW
Wind: SSW 6 km/h
Temperature: 8°C
Dew Point: 4°C
Humidity: 76%
Barometer: 1017.3 hPa
Clouds: Overcast
Visibility: 16 km
Cloud details: Overcast 1158 m
2022/12/03 10:53 KSJC 031053Z AUTO 21003KT 10SM OVC038 08/04 A3004 RMK AO2 SLP170 T00780039
KNUQ - Moffett Nas/Mtn, California, USA
Distance from station: N 14km
Updated: 03/12/2022 12:15
Overcast
Overcast
 Wind from calm
Wind: Calm
Temperature: 7°C
Dew Point: 4°C
Humidity: 81%
Barometer: 1016.9 hPa
Clouds: Overcast
Visibility: 16 km
Cloud details: Overcast 945 m
2022/12/03 11:15 KNUQ 031115Z AUTO 00000KT 10SM OVC031 07/04 A3003 RMK AO2
 
KPAO - Palo Alto, California, USA
Distance from station: NNW 23km
Updated: 03/12/2022 05:47
NOT Current
Clear
Clear
 Wind from varies
Wind: varies 7 km/h
Temperature: 5°C
Wind Chill: 3°C
Dew Point: 3°C
Humidity: 87%
Barometer: 1019 hPa
Clouds: Clear
Visibility: 16 km
2022/12/03 04:47 KPAO 030447Z VRB04KT 10SM SKC 05/03 A3009 RMK LAST
KRHV - San Jose/Reid, California, USA
Distance from station: ENE 19km
Updated: 03/12/2022 06:55
NOT Current
Mostly cloudy
Mostly cloudy
 Wind from calm
Wind: Calm
Temperature: 6°C
Dew Point: 3°C
Humidity: 81%
Barometer: 1019 hPa
Clouds: Mostly cloudy
Visibility: 16 km
Cloud details: Mostly cloudy 6096 m
2022/12/03 05:55 KRHV 030555Z 00000KT 10SM BKN200 06/03 A3009 RMK LAST
 
KOAK - Oakland, California, USA
Distance from station: NNW 50km
Updated: 03/12/2022 11:53
Mostly cloudy
Mostly cloudy
 Wind from NE
Wind: NE 7 km/h
Temperature: 8°C
Wind Chill: 7°C
Dew Point: 4°C
Humidity: 76%
Barometer: 1017.6 hPa
Clouds: Mostly cloudy
Visibility: 16 km
Cloud details: Mostly cloudy 792 m
2022/12/03 10:53 KOAK 031053Z 05004KT 10SM BKN026 08/04 A3005 RMK AO2 RAB41E53 SLP175 P0000 T00780039
KSQL - San Carlos Airpo, California, USA
Distance from station: NW 34km
Updated: 03/12/2022 12:15

 Wind from calm
Wind: Calm
Temperature: 8°C
Dew Point: 5°C
Humidity: 82%
Barometer: 1017.6 hPa
Visibility: 16 km
2022/12/03 11:15 KSQL 031115Z AUTO 00000KT 10SM 08/05 A3005 RMK AO2
 
KSFO - San Francisco, California, USA
Distance from station: NW 49km
Updated: 03/12/2022 11:56
Mostly cloudy
Mostly cloudy
 Wind from S
Wind: S 6 km/h
Temperature: 8°C
Dew Point: 5°C
Humidity: 82%
Barometer: 1017.3 hPa
Clouds: Mostly cloudy
Visibility: 16 km
Cloud details: Mostly cloudy 914 m
2022/12/03 10:56 KSFO 031056Z 18003KT 10SM BKN030 08/05 A3004 RMK AO2 SLP171 T00830050
KE16 - San Martin, California, USA
Distance from station: ESE 43km
Updated: 03/12/2022 12:15
Overcast
Overcast
 Wind from calm
Wind: Calm
Temperature: 5°C
Dew Point: 4°C
Humidity: 93%
Barometer: 1017.6 hPa
Clouds: Overcast
Visibility: 16 km
Cloud details: Mostly cloudy 671 m
Overcast 1311 m
2022/12/03 11:15 KE16 031115Z AUTO 00000KT 10SM BKN022 OVC043 05/04 A3005 RMK AO2
 
KWVI - Watsonville, California, USA
Distance from station: SSE 44km
Updated: 03/12/2022 11:53
Overcast
Overcast
 Wind from calm
Wind: Calm
Temperature: 7°C
Dew Point: 4°C
Humidity: 81%
Barometer: 1017.6 hPa
Clouds: Overcast
Visibility: 16 km
Cloud details: Overcast 610 m
2022/12/03 10:53 KWVI 031053Z AUTO 00000KT 10SM OVC020 07/04 A3005 RMK AO2 SLP174 T00670044
KHAF - Half Moon Bay, California, USA
Distance from station: WNW 50km
Updated: 03/12/2022 12:15
Overcast
Overcast
 Wind from calm
Wind: Calm
Temperature: 10°C
Dew Point: 10°C
Humidity: 100%
Barometer: 1016.6 hPa
Clouds: Overcast
Visibility: 11 km
Cloud details: Overcast 579 m
2022/12/03 11:15 KHAF 031115Z AUTO 00000KT 7SM OVC019 10/10 A3002 RMK AO2
 
KHWD - Hayward, California, USA
Distance from station: N 44km
Updated: 03/12/2022 11:54
Mostly cloudy
Mostly cloudy
 Wind from calm
Wind: Calm
Temperature: 8°C
Dew Point: 5°C
Humidity: 82%
Barometer: 1016.9 hPa
Clouds: Mostly cloudy
Visibility: 16 km
Cloud details: Mostly cloudy 1128 m
2022/12/03 10:54 KHWD 031054Z AUTO 00000KT 10SM BKN037 08/05 A3003 RMK AO2 RAB31E42 SLP180 P0000 T00830050
KLVK - Livermore, California, USA
Distance from station: NNE 51km
Updated: 03/12/2022 11:53
Overcast
Overcast
 Wind from calm
Wind: Calm
Temperature: 6°C
Dew Point: 3°C
Humidity: 81%
Barometer: 1017.3 hPa
Clouds: Overcast
Visibility: 16 km
Cloud details: Mostly cloudy 1341 m
Overcast 1676 m
2022/12/03 10:53 KLVK 031053Z AUTO 00000KT 10SM BKN044 OVC055 06/03 A3004 RMK AO2 SLP172 T00560028